Time;durP1;ratioP1;P1;durP2;ratioP2;P2;SDS_P1;SDS_P2;PMS_P1;PMS_P2;Temp;Humidity;BMP_temperature;BMP_pressure;BME280_temperature;BME280_humidity;BME280_pressure;Samples;Min_cycle;Max_cycle;Signal;HPM_P1;HPM_P2
2023/05/08 00:01:31;;;;;;;10.05;7.88;;;8.30;99.90;;;;;;5098981;28;20012;-39
2023/05/08 00:03:57;;;;;;;9.48;8.38;;;8.30;99.90;;;;;;5098369;28;20070;-39
2023/05/08 00:06:23;;;;;;;11.13;9.27;;;8.30;99.90;;;;;;5098089;28;20465;-39
2023/05/08 00:08:48;;;;;;;10.25;9.00;;;8.20;99.90;;;;;;5099351;28;20084;-39
2023/05/08 00:11:14;;;;;;;10.43;9.00;;;8.20;99.90;;;;;;5097271;28;20077;-40
2023/05/08 00:13:40;;;;;;;12.00;8.55;;;8.10;99.90;;;;;;5098215;28;20034;-40
2023/05/08 00:16:08;;;;;;;10.43;8.80;;;8.20;99.90;;;;;;5099505;28;20020;-39
2023/05/08 00:18:34;;;;;;;10.35;8.88;;;8.10;99.90;;;;;;5093799;28;20383;-39
2023/05/08 00:21:00;;;;;;;10.35;8.90;;;8.20;99.90;;;;;;5095909;28;20021;-39
2023/05/08 00:23:25;;;;;;;12.45;10.35;;;8.10;99.90;;;;;;5096221;28;20039;-39
2023/05/08 00:25:51;;;;;;;11.88;10.13;;;8.10;99.90;;;;;;5099278;28;20384;-40
2023/05/08 00:28:17;;;;;;;10.30;9.23;;;8.10;99.90;;;;;;5098132;28;20036;-40
2023/05/08 00:30:42;;;;;;;12.23;10.07;;;8.00;99.90;;;;;;5097151;28;20023;-40
2023/05/08 00:33:08;;;;;;;11.15;9.13;;;8.00;99.90;;;;;;5099072;28;20019;-39
2023/05/08 00:35:33;;;;;;;12.25;9.05;;;8.00;99.90;;;;;;5097419;28;20020;-40
2023/05/08 00:38:00;;;;;;;11.95;9.45;;;8.00;99.90;;;;;;5097745;28;20024;-40
2023/05/08 00:40:25;;;;;;;11.60;9.52;;;8.00;99.90;;;;;;5098871;28;20382;-39
2023/05/08 00:42:51;;;;;;;12.05;10.05;;;8.00;99.90;;;;;;5097098;28;20016;-40
2023/05/08 00:45:17;;;;;;;16.40;11.48;;;8.00;99.90;;;;;;5098375;28;20065;-39
2023/05/08 00:47:42;;;;;;;11.48;10.30;;;7.90;99.90;;;;;;5102058;28;20036;-40
2023/05/08 00:50:09;;;;;;;12.20;10.43;;;7.90;99.90;;;;;;5100659;28;20100;-40
2023/05/08 00:52:35;;;;;;;11.32;10.00;;;7.90;99.90;;;;;;5101718;28;20388;-39
2023/05/08 00:55:03;;;;;;;12.52;9.93;;;7.80;99.90;;;;;;5101926;28;20050;-39
2023/05/08 00:57:33;;;;;;;10.57;9.48;;;7.80;99.90;;;;;;5100244;28;20024;-39
2023/05/08 01:00:00;;;;;;;13.80;10.97;;;7.70;99.90;;;;;;5101358;27;20019;-40
2023/05/08 01:02:26;;;;;;;13.02;10.70;;;7.70;99.90;;;;;;5102061;28;20028;-40
2023/05/08 01:04:53;;;;;;;11.05;9.93;;;7.70;99.90;;;;;;5100312;28;20020;-39
2023/05/08 01:07:19;;;;;;;13.90;9.85;;;7.60;99.90;;;;;;5101922;28;20388;-39
2023/05/08 01:09:45;;;;;;;11.98;10.23;;;7.60;99.90;;;;;;5092002;28;20056;-40
2023/05/08 01:12:25;;;;;;;13.25;10.57;;;7.60;99.90;;;;;;5101921;28;20015;-40
2023/05/08 01:15:07;;;;;;;12.40;10.50;;;7.50;99.90;;;;;;5102220;28;20023;-40
2023/05/08 01:17:46;;;;;;;13.77;10.77;;;7.50;99.90;;;;;;5099168;28;20020;-41
2023/05/08 01:20:49;;;;;;;12.15;10.68;;;7.50;99.90;;;;;;5099693;28;20062;-40
2023/05/08 01:23:47;;;;;;;11.02;9.60;;;7.50;99.90;;;;;;5061368;28;20046;-40
2023/05/08 01:26:31;;;;;;;13.45;11.15;;;7.50;99.90;;;;;;5118005;27;20472;-39
2023/05/08 01:29:21;;;;;;;11.90;10.13;;;7.40;99.90;;;;;;5099489;28;20423;-39
2023/05/08 01:32:18;;;;;;;12.85;9.95;;;7.30;99.90;;;;;;5098951;28;20110;-39
2023/05/08 01:34:59;;;;;;;10.68;9.05;;;7.30;99.90;;;;;;5091915;28;20032;-40
2023/05/08 01:37:55;;;;;;;12.30;9.40;;;7.30;99.90;;;;;;5089923;28;20020;-40
2023/05/08 01:40:35;;;;;;;12.38;9.82;;;7.30;99.90;;;;;;5088633;28;20031;-39
2023/05/08 01:43:12;;;;;;;12.20;9.82;;;7.20;99.90;;;;;;5089552;28;20031;-40
2023/05/08 01:45:43;;;;;;;11.40;9.75;;;7.20;99.90;;;;;;5087131;28;20025;-39
2023/05/08 01:48:15;;;;;;;11.27;9.25;;;7.20;99.90;;;;;;5090238;28;20509;-40
2023/05/08 01:50:47;;;;;;;13.23;10.65;;;7.10;99.90;;;;;;5090247;28;20582;-39
2023/05/08 01:53:20;;;;;;;12.57;9.48;;;7.10;99.90;;;;;;5090383;28;20339;-39
2023/05/08 01:55:49;;;;;;;13.43;10.98;;;7.10;99.90;;;;;;5088987;28;20051;-39
2023/05/08 01:58:15;;;;;;;11.90;10.10;;;7.10;99.90;;;;;;5089955;28;20323;-39
2023/05/08 02:00:42;;;;;;;12.35;10.52;;;7.10;99.90;;;;;;5089584;28;20039;-39
2023/05/08 02:03:10;;;;;;;13.95;11.07;;;7.00;99.90;;;;;;5089594;28;20023;-39
2023/05/08 02:05:37;;;;;;;13.82;10.70;;;7.00;99.90;;;;;;5089505;28;20099;-39
2023/05/08 02:08:03;;;;;;;12.80;10.52;;;7.00;99.90;;;;;;5089941;28;20111;-39
2023/05/08 02:10:30;;;;;;;12.02;9.88;;;7.00;99.90;;;;;;5088708;28;20501;-39
2023/05/08 02:12:58;;;;;;;13.57;10.57;;;6.90;99.90;;;;;;5089265;28;20456;-39
2023/05/08 02:15:26;;;;;;;13.80;10.82;;;6.90;99.90;;;;;;5089647;28;20019;-39
2023/05/08 02:17:53;;;;;;;13.90;10.80;;;6.90;99.90;;;;;;5089267;28;20012;-39
2023/05/08 02:20:21;;;;;;;14.40;10.32;;;6.90;99.90;;;;;;5088672;28;20408;-39
2023/05/08 02:22:50;;;;;;;13.05;10.35;;;6.80;99.90;;;;;;5087771;28;20027;-39
2023/05/08 02:25:16;;;;;;;11.38;10.13;;;6.80;99.90;;;;;;5089477;28;20013;-39
2023/05/08 02:27:48;;;;;;;13.70;10.88;;;6.80;99.90;;;;;;5089584;28;20482;-39
2023/05/08 02:30:16;;;;;;;12.23;10.85;;;6.80;99.90;;;;;;5089609;28;20020;-39
2023/05/08 02:32:43;;;;;;;14.32;11.57;;;6.80;99.90;;;;;;5089723;28;20028;-39
2023/05/08 02:35:15;;;;;;;13.63;10.93;;;6.80;99.90;;;;;;5088245;28;20070;-39
2023/05/08 02:37:43;;;;;;;13.18;10.82;;;6.80;99.90;;;;;;5089302;28;20085;-39
2023/05/08 02:40:11;;;;;;;14.02;10.50;;;6.70;99.90;;;;;;5088902;28;20024;-39
2023/05/08 02:42:37;;;;;;;15.02;11.48;;;6.70;99.90;;;;;;5089263;28;20012;-39
2023/05/08 02:45:03;;;;;;;13.85;10.88;;;6.70;99.90;;;;;;5089326;28;20038;-39
2023/05/08 02:47:38;;;;;;;14.02;10.57;;;6.70;99.90;;;;;;5089014;28;20032;-39
2023/05/08 02:50:33;;;;;;;13.80;10.73;;;6.70;99.90;;;;;;5088026;28;20054;-39
2023/05/08 02:53:03;;;;;;;14.32;11.70;;;6.70;99.90;;;;;;5088932;28;20032;-39
2023/05/08 02:55:35;;;;;;;;;;;6.70;99.90;;;;;;5089350;28;20085;-39
2023/05/08 02:58:00;;;;;;;16.38;12.35;;;6.60;99.90;;;;;;5088340;28;19954;-39
2023/05/08 03:00:39;;;;;;;14.80;10.95;;;6.70;99.90;;;;;;5088232;28;20028;-39
2023/05/08 03:03:15;;;;;;;15.10;11.05;;;6.60;99.90;;;;;;5087611;28;20023;-39
2023/05/08 03:05:48;;;;;;;14.95;11.73;;;6.60;99.90;;;;;;5086687;28;20023;-39
2023/05/08 03:08:18;;;;;;;16.50;11.65;;;6.60;99.90;;;;;;5086734;28;20024;-39
2023/05/08 03:10:48;;;;;;;15.38;11.70;;;6.60;99.90;;;;;;5086726;28;20046;-39
2023/05/08 03:13:14;;;;;;;18.00;12.13;;;6.60;99.90;;;;;;5088237;28;20085;-39
2023/05/08 03:15:53;;;;;;;13.70;11.55;;;6.60;99.90;;;;;;5088291;28;20020;-39
2023/05/08 03:18:21;;;;;;;15.50;12.10;;;6.60;99.90;;;;;;5087881;28;20069;-39
2023/05/08 03:20:51;;;;;;;14.35;10.50;;;6.60;99.90;;;;;;5087729;28;20031;-39
2023/05/08 03:23:19;;;;;;;14.27;11.57;;;6.50;99.90;;;;;;5086789;28;20016;-39
2023/05/08 03:25:45;;;;;;;13.93;11.35;;;6.50;99.90;;;;;;5088514;28;20098;-39
2023/05/08 03:28:12;;;;;;;15.43;11.43;;;6.50;99.90;;;;;;5088019;28;20410;-39
2023/05/08 03:30:40;;;;;;;13.73;11.20;;;6.50;99.90;;;;;;5087633;28;20074;-39
2023/05/08 03:33:07;;;;;;;13.40;10.93;;;6.50;99.90;;;;;;5085885;28;20008;-39
2023/05/08 03:35:57;;;;;;;14.15;11.50;;;6.50;99.90;;;;;;5085908;28;20047;-39
2023/05/08 03:38:22;;;;;;;17.05;11.35;;;6.50;99.90;;;;;;5056177;28;20040;-39
2023/05/08 03:40:48;;;;;;;13.32;10.90;;;6.50;99.90;;;;;;5055655;28;20173;-40
2023/05/08 03:43:15;;;;;;;14.18;11.90;;;6.50;99.90;;;;;;5076808;28;20028;-40
2023/05/08 03:45:41;;;;;;;15.23;11.57;;;6.50;99.90;;;;;;5088009;28;20095;-39
2023/05/08 03:48:08;;;;;;;14.45;11.32;;;6.50;99.90;;;;;;5075228;28;20115;-40
2023/05/08 03:50:36;;;;;;;13.13;11.02;;;6.40;99.90;;;;;;5059218;28;20417;-40
2023/05/08 03:53:02;;;;;;;16.10;10.65;;;6.40;99.90;;;;;;5041773;28;20483;-41
2023/05/08 03:55:28;;;;;;;12.95;10.25;;;6.50;99.90;;;;;;5057311;28;20021;-40
2023/05/08 03:58:09;;;;;;;15.27;11.73;;;6.50;99.90;;;;;;5059593;28;20021;-39
2023/05/08 04:00:49;;;;;;;;;;;6.40;99.90;;;;;;5057230;28;20056;-39
2023/05/08 04:03:36;;;;;;;14.80;11.32;;;6.40;99.90;;;;;;5059103;28;20003;-39
2023/05/08 04:06:42;;;;;;;15.63;11.05;;;6.40;99.90;;;;;;5058509;28;20499;-39
2023/05/08 04:09:23;;;;;;;14.20;11.32;;;6.40;99.90;;;;;;5056501;28;20020;-39
2023/05/08 04:12:08;;;;;;;16.42;11.48;;;6.40;99.90;;;;;;5058934;28;20056;-39
2023/05/08 04:14:47;;;;;;;14.45;11.55;;;6.50;99.90;;;;;;5049788;28;20123;-39
2023/05/08 04:17:18;;;;;;;14.05;11.32;;;6.50;99.90;;;;;;5056843;28;20483;-39
2023/05/08 04:19:47;;;;;;;14.07;10.75;;;6.60;99.90;;;;;;5057359;28;20024;-39
2023/05/08 04:22:15;;;;;;;14.00;11.30;;;6.50;99.90;;;;;;5043380;28;20103;-39
2023/05/08 04:24:44;;;;;;;12.73;10.52;;;6.60;99.90;;;;;;5061584;28;20025;-39
2023/05/08 04:27:11;;;;;;;14.23;11.45;;;6.60;99.90;;;;;;5060234;28;20028;-39
2023/05/08 04:29:37;;;;;;;13.10;10.85;;;6.60;99.90;;;;;;5057343;28;20527;-39
2023/05/08 04:32:04;;;;;;;11.75;10.23;;;6.60;99.90;;;;;;5051886;28;20025;-39
2023/05/08 04:34:30;;;;;;;16.80;11.35;;;6.60;99.90;;;;;;5051670;28;20478;-39
2023/05/08 04:36:56;;;;;;;12.95;10.02;;;6.70;99.90;;;;;;5051770;28;20036;-39
2023/05/08 04:39:21;;;;;;;17.80;11.30;;;6.70;99.90;;;;;;5051654;28;20025;-39
2023/05/08 04:41:47;;;;;;;14.18;10.95;;;6.80;99.90;;;;;;5050920;28;20020;-39
2023/05/08 04:44:13;;;;;;;17.33;10.40;;;6.80;99.90;;;;;;5051793;28;20103;-39
2023/05/08 04:46:39;;;;;;;11.88;10.15;;;6.90;99.90;;;;;;5052027;28;20025;-39
2023/05/08 04:49:04;;;;;;;15.98;11.40;;;6.90;99.90;;;;;;5086241;28;20038;-39
2023/05/08 04:51:30;;;;;;;13.98;10.70;;;6.90;99.90;;;;;;5089307;28;20031;-39
2023/05/08 04:53:56;;;;;;;15.10;10.10;;;6.90;99.90;;;;;;5091319;28;20016;-39
2023/05/08 04:56:21;;;;;;;12.75;10.05;;;6.90;99.90;;;;;;5090511;28;20055;-39
2023/05/08 04:58:47;;;;;;;16.30;10.70;;;7.00;99.90;;;;;;5091679;28;20024;-39
2023/05/08 05:01:12;;;;;;;14.10;11.05;;;7.10;99.90;;;;;;5090178;28;20036;-39
2023/05/08 05:03:38;;;;;;;19.35;10.15;;;7.20;99.90;;;;;;5091318;28;20024;-39
2023/05/08 05:06:04;;;;;;;12.00;9.75;;;7.20;99.90;;;;;;5080826;28;20114;-39
2023/05/08 05:08:29;;;;;;;12.57;9.65;;;7.30;99.90;;;;;;5083569;28;20028;-39
2023/05/08 05:10:55;;;;;;;12.82;10.13;;;7.40;99.90;;;;;;5090401;28;20103;-39
2023/05/08 05:13:20;;;;;;;16.48;9.80;;;7.40;99.90;;;;;;5091592;28;20024;-39
2023/05/08 05:15:46;;;;;;;14.23;10.43;;;7.50;99.90;;;;;;5091255;28;20026;-39
2023/05/08 05:18:11;;;;;;;13.15;9.88;;;7.60;99.90;;;;;;5082630;28;20039;-39
2023/05/08 05:20:37;;;;;;;13.93;9.98;;;7.70;99.90;;;;;;5089783;28;20028;-39
2023/05/08 05:23:03;;;;;;;13.05;10.20;;;7.70;99.90;;;;;;5090341;28;20431;-39
2023/05/08 05:25:29;;;;;;;11.95;9.52;;;7.70;99.90;;;;;;5090919;28;20791;-39
2023/05/08 05:27:54;;;;;;;14.88;9.43;;;7.80;99.90;;;;;;5090891;28;20161;-39
2023/05/08 05:30:20;;;;;;;14.43;10.75;;;7.90;99.90;;;;;;5090537;28;20019;-39
2023/05/08 05:32:46;;;;;;;11.07;9.40;;;7.90;99.90;;;;;;5090661;28;20024;-39
2023/05/08 05:35:11;;;;;;;12.82;9.98;;;8.00;99.90;;;;;;5090764;28;20483;-39
2023/05/08 05:37:37;;;;;;;11.60;9.30;;;8.00;99.90;;;;;;5090914;28;20020;-39
2023/05/08 05:40:03;;;;;;;14.68;10.05;;;8.10;99.90;;;;;;5091004;28;20034;-39
2023/05/08 05:42:28;;;;;;;15.48;10.30;;;8.00;99.90;;;;;;5090221;28;20020;-39
2023/05/08 05:44:55;;;;;;;16.08;11.48;;;8.00;99.90;;;;;;5082145;28;20028;-39
2023/05/08 05:47:21;;;;;;;14.82;9.88;;;8.10;99.90;;;;;;5064063;28;20111;-40
2023/05/08 05:49:46;;;;;;;13.02;10.00;;;8.20;99.90;;;;;;5050406;28;20117;-39
2023/05/08 05:52:13;;;;;;;12.65;9.90;;;8.30;99.90;;;;;;5049528;28;20446;-39
2023/05/08 05:54:40;;;;;;;12.50;9.35;;;8.40;99.90;;;;;;5050353;28;20020;-39
2023/05/08 05:57:06;;;;;;;13.52;10.00;;;8.40;99.90;;;;;;5050382;28;20026;-39
2023/05/08 05:59:32;;;;;;;47.35;34.60;;;8.50;99.90;;;;;;5050041;28;20487;-39
2023/05/08 06:01:58;;;;;;;110.00;61.33;;;8.60;99.90;;;;;;5031715;28;20025;-39
2023/05/08 06:04:23;;;;;;;20.88;12.23;;;8.70;99.90;;;;;;5050206;28;20021;-39
2023/05/08 06:06:49;;;;;;;14.75;10.70;;;8.70;99.90;;;;;;5051640;28;20378;-39
2023/05/08 06:09:14;;;;;;;13.27;9.48;;;8.80;99.90;;;;;;5049689;28;20081;-39
2023/05/08 06:11:41;;;;;;;14.18;10.45;;;8.90;99.90;;;;;;5049276;28;20025;-39
2023/05/08 06:14:06;;;;;;;12.52;9.27;;;9.00;99.90;;;;;;5049931;28;20053;-39
2023/05/08 06:16:32;;;;;;;11.65;9.40;;;9.00;99.90;;;;;;5064236;28;20498;-39
2023/05/08 06:18:57;;;;;;;12.82;9.73;;;9.00;99.90;;;;;;5069737;28;20024;-39
2023/05/08 06:21:23;;;;;;;13.27;9.73;;;9.00;99.90;;;;;;5069012;28;20111;-39
2023/05/08 06:23:49;;;;;;;13.88;9.82;;;9.20;99.90;;;;;;5068190;28;20029;-39
2023/05/08 06:26:14;;;;;;;11.02;9.45;;;9.30;99.90;;;;;;5069298;28;20024;-39
2023/05/08 06:28:40;;;;;;;13.93;10.88;;;9.30;99.90;;;;;;5069879;28;20555;-39
2023/05/08 06:31:05;;;;;;;13.75;10.23;;;9.40;99.90;;;;;;5068831;28;20290;-39
2023/05/08 06:33:31;;;;;;;13.25;9.98;;;9.40;99.90;;;;;;5069631;28;20078;-39
2023/05/08 06:35:56;;;;;;;14.80;10.13;;;9.50;99.90;;;;;;5069550;28;20173;-39
2023/05/08 06:38:22;;;;;;;14.38;10.00;;;9.50;99.90;;;;;;5069491;28;20036;-39
2023/05/08 06:40:49;;;;;;;14.60;9.50;;;9.60;99.90;;;;;;5069185;28;20021;-39
2023/05/08 06:43:15;;;;;;;14.60;10.02;;;9.70;99.90;;;;;;5068836;28;20097;-39
2023/05/08 06:45:42;;;;;;;13.55;10.27;;;9.80;99.90;;;;;;5069721;28;20020;-39
2023/05/08 06:48:07;;;;;;;12.65;10.15;;;9.80;99.90;;;;;;5082388;28;20515;-39
2023/05/08 06:50:36;;;;;;;15.18;11.00;;;9.70;99.90;;;;;;5089070;28;20020;-39
2023/05/08 06:53:01;;;;;;;12.70;10.73;;;9.80;99.90;;;;;;5089201;28;20095;-39
2023/05/08 06:55:27;;;;;;;15.55;10.82;;;10.00;99.90;;;;;;5089082;28;20119;-39
2023/05/08 06:57:52;;;;;;;12.48;10.23;;;10.10;99.90;;;;;;5089261;28;20020;-39
2023/05/08 07:00:18;;;;;;;15.27;11.65;;;10.20;99.90;;;;;;5070359;28;20401;-39
2023/05/08 07:02:43;;;;;;;14.80;10.40;;;10.20;99.90;;;;;;5089314;28;20030;-39
2023/05/08 07:05:09;;;;;;;13.18;10.73;;;10.30;99.90;;;;;;5089316;28;20028;-40
2023/05/08 07:07:35;;;;;;;17.65;10.98;;;10.30;99.90;;;;;;5089680;28;20028;-40
2023/05/08 07:10:00;;;;;;;16.05;11.40;;;10.40;99.90;;;;;;5089711;28;20486;-40
2023/05/08 07:12:26;;;;;;;12.32;10.38;;;10.50;99.90;;;;;;5088126;28;20059;-40
2023/05/08 07:14:51;;;;;;;10.85;9.68;;;10.50;99.90;;;;;;5089067;28;20314;-39
2023/05/08 07:17:17;;;;;;;12.07;9.50;;;10.60;99.90;;;;;;5089219;28;20032;-40
2023/05/08 07:19:43;;;;;;;15.02;10.88;;;10.60;99.90;;;;;;5070961;28;20077;-40
2023/05/08 07:22:08;;;;;;;15.55;9.48;;;10.70;99.90;;;;;;5088768;28;20048;-40
2023/05/08 07:24:33;;;;;;;13.55;10.43;;;10.90;99.90;;;;;;5089000;28;20103;-40
2023/05/08 07:27:00;;;;;;;12.10;9.63;;;10.90;99.90;;;;;;5089005;28;20071;-40
2023/05/08 07:29:25;;;;;;;14.65;10.75;;;11.00;99.90;;;;;;5088670;28;20031;-40
2023/05/08 07:31:51;;;;;;;12.35;9.77;;;11.20;99.90;;;;;;5088273;28;20024;-40
2023/05/08 07:34:17;;;;;;;14.15;10.25;;;11.30;99.90;;;;;;5089027;28;20028;-40
2023/05/08 07:36:42;;;;;;;11.88;9.70;;;11.50;99.90;;;;;;5088976;28;20028;-40
2023/05/08 07:39:08;;;;;;;10.70;9.45;;;11.60;99.90;;;;;;5088795;28;20240;-40
2023/05/08 07:41:35;;;;;;;12.07;10.05;;;11.70;99.90;;;;;;5088436;28;20020;-40
2023/05/08 07:44:01;;;;;;;15.32;9.85;;;11.90;99.90;;;;;;5088706;28;20012;-40
2023/05/08 07:46:27;;;;;;;14.45;9.70;;;12.00;99.90;;;;;;5089016;28;20052;-40
2023/05/08 07:48:52;;;;;;;12.77;10.40;;;12.20;99.90;;;;;;5088839;28;20032;-40
2023/05/08 07:51:18;;;;;;;16.90;10.27;;;12.50;99.90;;;;;;5088079;28;20035;-40
2023/05/08 07:53:43;;;;;;;12.95;9.57;;;12.60;99.90;;;;;;5088742;28;20502;-40
2023/05/08 07:56:09;;;;;;;13.90;9.20;;;12.80;99.90;;;;;;5091937;28;20082;-40
2023/05/08 07:58:34;;;;;;;15.20;10.10;;;13.20;99.90;;;;;;5092497;28;20034;-40
2023/05/08 08:01:00;;;;;;;13.35;9.25;;;13.30;99.90;;;;;;5092233;28;20024;-40
2023/05/08 08:03:26;;;;;;;10.55;9.38;;;13.60;99.90;;;;;;5092498;28;20022;-40
2023/05/08 08:05:52;;;;;;;11.75;9.32;;;14.00;99.90;;;;;;5092474;28;20099;-41
2023/05/08 08:08:17;;;;;;;12.85;9.02;;;14.00;99.90;;;;;;5060054;28;20036;-42
2023/05/08 08:10:43;;;;;;;13.60;9.73;;;14.10;99.90;;;;;;5053789;28;20016;-41
2023/05/08 08:13:08;;;;;;;12.95;9.20;;;14.40;99.90;;;;;;5084602;28;20106;-40
2023/05/08 08:15:34;;;;;;;9.18;8.27;;;14.80;99.90;;;;;;5056850;28;20024;-41
2023/05/08 08:17:59;;;;;;;10.60;9.45;;;15.00;99.20;;;;;;5051356;28;20025;-41
2023/05/08 08:20:25;;;;;;;10.52;8.63;;;15.10;98.60;;;;;;5051824;28;20028;-41
2023/05/08 08:22:50;;;;;;;11.07;8.25;;;15.40;98.70;;;;;;5052162;28;20021;-41
2023/05/08 08:25:16;;;;;;;9.48;8.32;;;16.20;97.40;;;;;;5051614;28;20017;-41
2023/05/08 08:27:42;;;;;;;7.18;6.50;;;16.80;96.20;;;;;;5051440;28;20151;-39
2023/05/08 08:30:08;;;;;;;8.57;6.55;;;18.10;93.30;;;;;;5051579;28;20108;-40
2023/05/08 08:32:33;;;;;;;8.60;6.85;;;19.70;87.00;;;;;;5051088;28;20117;-41
2023/05/08 08:34:59;;;;;;;9.13;5.82;;;21.30;79.30;;;;;;5051663;28;20037;-42
2023/05/08 08:37:25;;;;;;;7.43;5.38;;;21.70;75.50;;;;;;5051330;28;20037;-41
2023/05/08 08:39:50;;;;;;;7.55;5.97;;;22.70;70.50;;;;;;5050791;28;20025;-42
2023/05/08 08:42:16;;;;;;;6.30;5.10;;;24.10;65.20;;;;;;5051178;28;20035;-42
2023/05/08 08:44:42;;;;;;;7.05;5.28;;;24.30;66.00;;;;;;5051505;28;20521;-41
2023/05/08 08:47:11;;;;;;;5.60;5.00;;;24.80;61.50;;;;;;5051418;28;20108;-42
2023/05/08 08:49:42;;;;;;;6.07;4.78;;;25.90;60.40;;;;;;5050590;28;20036;-41
2023/05/08 08:52:18;;;;;;;5.90;5.38;;;26.70;56.00;;;;;;5051106;28;20412;-41
2023/05/08 08:54:47;;;;;;;5.15;4.70;;;26.20;53.50;;;;;;5051482;28;20057;-42
2023/05/08 08:57:14;;;;;;;4.95;4.50;;;25.50;55.00;;;;;;5033446;28;20029;-43
2023/05/08 08:59:41;;;;;;;5.43;4.93;;;25.80;54.50;;;;;;5051227;28;20552;-43
2023/05/08 09:02:10;;;;;;;8.98;4.82;;;26.80;54.40;;;;;;5050245;28;20471;-42
2023/05/08 09:04:37;;;;;;;6.43;5.05;;;27.60;52.50;;;;;;5033122;28;20079;-43
2023/05/08 09:07:04;;;;;;;5.45;4.95;;;27.90;54.00;;;;;;5050028;28;20033;-42
2023/05/08 09:09:32;;;;;;;6.82;4.88;;;27.00;50.80;;;;;;5070337;28;20043;-42
2023/05/08 09:11:58;;;;;;;4.82;4.43;;;27.30;50.30;;;;;;5070919;28;20398;-42
2023/05/08 09:14:25;;;;;;;4.43;4.10;;;27.40;50.10;;;;;;5070874;28;20035;-43
2023/05/08 09:16:52;;;;;;;5.82;4.35;;;27.40;50.20;;;;;;5056938;28;20027;-42
2023/05/08 09:19:18;;;;;;;6.15;5.25;;;27.50;49.80;;;;;;5050497;28;20028;-42
2023/05/08 09:21:44;;;;;;;5.50;4.90;;;28.30;47.60;;;;;;5050549;28;20086;-42
2023/05/08 09:24:10;;;;;;;7.13;5.07;;;27.50;49.00;;;;;;5033208;28;20028;-42
2023/05/08 09:26:40;;;;;;;4.85;4.35;;;27.00;49.60;;;;;;5033026;28;20564;-41
2023/05/08 09:29:15;;;;;;;5.32;4.60;;;28.30;50.20;;;;;;5050874;28;20025;-43
2023/05/08 09:31:51;;;;;;;5.40;4.30;;;29.30;48.00;;;;;;5050140;28;20037;-42
2023/05/08 09:34:26;;;;;;;4.45;4.05;;;29.40;46.40;;;;;;5050536;28;20029;-41
2023/05/08 09:36:53;;;;;;;4.07;3.78;;;28.80;50.00;;;;;;5050360;28;20027;-43
2023/05/08 09:39:23;;;;;;;5.63;3.85;;;30.20;46.30;;;;;;5050340;28;20025;-42
2023/05/08 09:42:03;;;;;;;4.20;3.83;;;30.00;45.40;;;;;;5050045;28;20386;-42
2023/05/08 09:44:48;;;;;;;5.15;3.65;;;29.20;45.20;;;;;;5032814;28;20558;-42
2023/05/08 09:47:16;;;;;;;4.47;4.07;;;29.70;46.70;;;;;;5050302;28;20119;-42
2023/05/08 09:50:08;;;;;;;4.60;4.10;;;30.10;46.20;;;;;;5050613;28;20461;-41
2023/05/08 09:52:36;;;;;;;4.72;4.15;;;29.40;47.00;;;;;;5049647;28;20048;-42
2023/05/08 09:55:07;;;;;;;5.00;4.50;;;29.60;46.00;;;;;;5032331;28;20021;-42
2023/05/08 09:57:37;;;;;;;4.85;4.45;;;29.50;46.30;;;;;;5050159;28;20306;-41
2023/05/08 10:00:08;;;;;;;4.75;4.13;;;29.80;46.60;;;;;;5050039;28;20025;-41
2023/05/08 10:02:35;;;;;;;19.80;16.10;;;30.50;46.50;;;;;;5049788;28;20024;-41
2023/05/08 10:05:01;;;;;;;17.90;15.98;;;31.30;45.70;;;;;;5050091;28;20029;-41
2023/05/08 10:07:31;;;;;;;5.82;4.10;;;31.50;45.40;;;;;;5050026;28;20040;-41
2023/05/08 10:09:59;;;;;;;6.20;3.78;;;31.80;45.30;;;;;;5066113;28;20027;-41
2023/05/08 10:12:25;;;;;;;5.35;4.85;;;32.60;43.90;;;;;;5069070;28;20482;-41
2023/05/08 10:14:51;;;;;;;5.07;4.60;;;31.70;43.20;;;;;;5069939;28;20469;-42
2023/05/08 10:17:26;;;;;;;5.00;4.50;;;32.10;44.50;;;;;;5051240;28;20028;-41
2023/05/08 10:20:01;;;;;;;5.15;4.68;;;31.10;42.90;;;;;;5047821;28;20096;-42
2023/05/08 10:22:28;;;;;;;5.13;4.30;;;31.00;43.30;;;;;;5049211;28;20718;-42
2023/05/08 10:24:56;;;;;;;7.57;4.47;;;31.40;44.30;;;;;;5049600;28;20502;-43
2023/05/08 10:27:37;;;;;;;4.97;3.92;;;31.50;44.40;;;;;;5049665;28;20333;-43
2023/05/08 10:30:03;;;;;;;5.00;4.55;;;31.10;44.70;;;;;;5049607;28;20269;-41
2023/05/08 10:32:36;;;;;;;4.75;4.35;;;30.10;43.80;;;;;;5049206;28;20021;-41
2023/05/08 10:35:03;;;;;;;5.57;5.07;;;29.70;45.10;;;;;;5065573;28;20032;-41
2023/05/08 10:37:29;;;;;;;4.85;4.45;;;29.60;46.10;;;;;;5069342;28;20051;-41
2023/05/08 10:39:57;;;;;;;5.40;4.90;;;30.20;46.90;;;;;;5069413;28;20418;-43
2023/05/08 10:42:23;;;;;;;6.65;4.90;;;30.30;44.40;;;;;;5068393;28;20549;-42
2023/05/08 10:44:49;;;;;;;5.85;5.25;;;29.50;45.40;;;;;;5069173;28;20116;-42
2023/05/08 10:47:32;;;;;;;5.63;5.13;;;29.20;44.90;;;;;;5074782;28;20040;-44
2023/05/08 10:50:29;;;;;;;6.07;4.82;;;30.20;45.10;;;;;;5089645;28;20028;-41
2023/05/08 10:53:14;;;;;;;5.38;4.60;;;29.50;45.50;;;;;;5087856;28;20032;-42
2023/05/08 10:55:43;;;;;;;4.97;4.40;;;30.10;46.10;;;;;;5089954;28;20038;-42
2023/05/08 10:58:22;;;;;;;5.60;4.28;;;30.30;45.30;;;;;;5087868;28;20055;-43
2023/05/08 11:00:58;;;;;;;9.43;4.80;;;30.50;45.20;;;;;;5088991;28;20028;-43
2023/05/08 11:03:27;;;;;;;6.97;4.22;;;31.00;44.00;;;;;;5089151;28;20190;-42
2023/05/08 11:05:55;;;;;;;4.27;3.97;;;31.10;44.40;;;;;;5089092;28;20055;-44
2023/05/08 11:08:23;;;;;;;5.50;4.47;;;31.50;44.30;;;;;;5089036;28;20246;-42
2023/05/08 11:10:58;;;;;;;6.45;4.38;;;31.40;45.70;;;;;;5088849;28;20385;-41
2023/05/08 11:13:36;;;;;;;3.95;3.55;;;31.70;43.80;;;;;;5089253;28;20027;-43
2023/05/08 11:16:03;;;;;;;6.47;3.63;;;31.70;46.10;;;;;;5089394;28;20494;-42
2023/05/08 11:18:29;;;;;;;4.55;3.90;;;31.70;45.00;;;;;;5088458;28;20031;-43
2023/05/08 11:21:21;;;;;;;5.32;3.72;;;31.60;44.30;;;;;;5068329;28;20505;-42
2023/05/08 11:23:55;;;;;;;9.57;4.45;;;31.40;43.30;;;;;;5086161;28;20380;-44
2023/05/08 11:26:36;;;;;;;3.80;3.40;;;31.20;43.20;;;;;;5086576;28;20040;-44
2023/05/08 11:29:14;;;;;;;4.28;3.47;;;30.60;45.60;;;;;;5069151;28;20037;-43
2023/05/08 11:31:50;;;;;;;7.13;3.88;;;30.80;46.80;;;;;;5068466;28;20033;-42
2023/05/08 11:34:54;;;;;;;4.60;4.20;;;31.60;43.90;;;;;;5068768;28;20045;-41
2023/05/08 11:37:22;;;;;;;3.33;3.03;;;31.50;44.20;;;;;;5009204;28;20120;-45
2023/05/08 11:39:49;;;;;;;4.13;3.28;;;31.10;43.00;;;;;;5026179;28;20519;-43
2023/05/08 11:42:23;;;;;;;4.40;3.10;;;30.80;44.60;;;;;;5046124;28;20036;-45
2023/05/08 11:45:02;;;;;;;5.13;3.78;;;31.00;42.60;;;;;;5068666;28;20039;-43
2023/05/08 11:47:36;;;;;;;5.22;3.78;;;30.40;44.60;;;;;;5068687;28;20648;-45
2023/05/08 11:50:03;;;;;;;4.05;3.65;;;30.60;44.40;;;;;;5068493;28;20076;-41
2023/05/08 11:52:32;;;;;;;5.03;3.42;;;30.30;44.10;;;;;;5067964;28;20063;-42
2023/05/08 11:55:10;;;;;;;37.50;31.15;;;30.00;43.00;;;;;;5068752;28;20023;-41
2023/05/08 11:57:36;;;;;;;11.55;9.70;;;28.70;44.70;;;;;;5068561;28;20025;-42
2023/05/08 12:00:09;;;;;;;4.82;3.53;;;26.90;47.30;;;;;;5068425;28;20070;-42
2023/05/08 12:02:42;;;;;;;7.30;3.70;;;26.60;46.50;;;;;;5068111;28;20032;-41
2023/05/08 12:05:09;;;;;;;6.18;4.03;;;25.90;48.50;;;;;;5068582;28;20418;-44
2023/05/08 12:07:45;;;;;;;9.13;3.90;;;26.20;49.40;;;;;;5068634;28;20658;-42
2023/05/08 12:10:11;;;;;;;6.30;4.70;;;26.40;49.90;;;;;;5068655;28;20110;-42
2023/05/08 12:12:38;;;;;;;4.55;4.15;;;26.20;50.60;;;;;;5067645;28;20060;-42
2023/05/08 12:15:12;;;;;;;4.70;3.30;;;25.40;52.90;;;;;;5067152;28;20032;-42
2023/05/08 12:17:37;;;;;;;3.72;2.90;;;25.30;48.60;;;;;;5068450;28;20039;-41
2023/05/08 12:20:14;;;;;;;6.07;3.63;;;25.00;48.90;;;;;;5068134;28;20032;-42
2023/05/08 12:22:40;;;;;;;7.60;3.80;;;24.90;49.10;;;;;;5068242;28;20100;-41
2023/05/08 12:25:08;;;;;;;7.32;3.60;;;24.70;50.70;;;;;;5067958;28;20062;-41
2023/05/08 12:27:36;;;;;;;4.53;3.53;;;24.50;51.80;;;;;;5068080;28;20028;-43
2023/05/08 12:30:09;;;;;;;4.97;3.50;;;24.10;50.60;;;;;;5068118;28;20036;-40
2023/05/08 12:32:37;;;;;;;7.63;3.28;;;24.00;51.20;;;;;;5068106;28;20034;-41
2023/05/08 12:35:05;;;;;;;7.45;2.80;;;23.90;50.40;;;;;;5068176;28;20048;-40
2023/05/08 12:37:30;;;;;;;3.45;3.15;;;23.60;53.00;;;;;;5074211;28;20020;-41
2023/05/08 12:39:56;;;;;;;5.57;3.35;;;23.60;52.60;;;;;;5087625;28;20477;-40
2023/05/08 12:42:21;;;;;;;5.25;3.20;;;23.80;53.10;;;;;;5088953;28;20044;-40
2023/05/08 12:44:51;;;;;;;4.20;3.67;;;23.60;52.40;;;;;;5091553;28;20091;-40
2023/05/08 12:47:19;;;;;;;6.17;3.43;;;23.30;50.70;;;;;;5088646;28;20489;-40
2023/05/08 12:49:48;;;;;;;2.90;2.70;;;23.10;53.70;;;;;;5080261;28;20389;-40
2023/05/08 12:52:14;;;;;;;3.75;2.97;;;23.30;52.90;;;;;;5077938;28;20020;-41